createdAt,value
2019-05-17T00:00:57.173Z,0.0000
2019-05-17T00:02:00.292Z,0.0000
2019-05-17T00:03:03.299Z,0.0000
2019-05-17T00:04:07.189Z,0.0000
2019-05-17T00:05:10.279Z,0.0000
2019-05-17T00:06:13.329Z,0.0000
2019-05-17T00:07:16.716Z,0.0000
2019-05-17T00:08:31.016Z,0.0000
2019-05-17T00:09:28.284Z,0.0000
2019-05-17T00:10:30.335Z,0.0000
2019-05-17T00:11:33.290Z,0.0000
2019-05-17T00:12:36.960Z,0.0000
2019-05-17T00:13:40.290Z,0.0000
2019-05-17T00:14:43.260Z,0.0000
2019-05-17T00:15:47.378Z,0.0000
2019-05-17T00:16:50.312Z,0.0000
2019-05-17T00:17:53.328Z,0.0000
2019-05-17T00:18:56.804Z,0.0000
2019-05-17T00:19:59.477Z,0.0000
2019-05-17T00:21:02.294Z,0.0000
2019-05-17T00:22:07.316Z,0.0000
2019-05-17T00:23:10.299Z,0.0000
2019-05-17T00:24:13.287Z,0.0000
2019-05-17T00:25:16.663Z,0.0000
2019-05-17T00:26:18.304Z,0.0000
2019-05-17T00:27:21.344Z,0.0000
2019-05-17T00:28:26.739Z,0.0000
2019-05-17T00:29:30.292Z,0.0000
2019-05-17T00:30:33.293Z,0.0000
2019-05-17T00:31:36.968Z,0.0000
2019-05-17T00:32:40.342Z,0.0000
2019-05-17T00:33:43.278Z,0.0000
2019-05-17T00:34:46.982Z,0.0000
2019-05-17T00:35:50.283Z,0.0000
2019-05-17T00:36:53.302Z,0.0000
2019-05-17T00:37:57.081Z,0.0000
2019-05-17T00:39:00.291Z,0.0000
2019-05-17T00:40:03.279Z,0.0000
2019-05-17T00:41:07.084Z,0.0000
2019-05-17T00:42:10.312Z,0.0000
2019-05-17T00:43:13.335Z,0.0000
2019-05-17T00:44:16.784Z,0.0000
2019-05-17T00:45:20.271Z,0.0000
2019-05-17T00:46:23.304Z,0.0000
2019-05-17T00:47:26.565Z,0.0000
2019-05-17T00:48:29.365Z,0.0000
2019-05-17T00:49:32.284Z,0.0000
2019-05-17T00:50:37.771Z,0.0000
2019-05-17T00:51:41.296Z,0.0000
2019-05-17T00:52:44.318Z,0.0000
2019-05-17T00:53:47.319Z,0.0000
2019-05-17T00:54:50.289Z,0.0000
2019-05-17T00:55:53.296Z,0.0000
2019-05-17T00:56:56.692Z,0.0000
2019-05-17T00:58:00.310Z,0.0000
2019-05-17T00:59:03.284Z,0.0000
2019-05-17T01:00:08.296Z,0.0000
2019-05-17T01:01:11.299Z,0.0000
2019-05-17T01:02:16.183Z,0.0000
2019-05-17T01:03:19.310Z,0.0000
2019-05-17T01:04:21.271Z,0.0000
2019-05-17T01:05:24.304Z,0.0000
2019-05-17T01:06:27.641Z,0.0000
2019-05-17T01:07:31.384Z,0.0000
2019-05-17T01:08:34.280Z,0.0000
2019-05-17T01:09:37.279Z,0.0000
2019-05-17T01:10:40.327Z,0.0000
2019-05-17T01:11:43.324Z,0.0000
2019-05-17T01:12:48.205Z,0.0000
2019-05-17T01:13:51.281Z,0.0000
2019-05-17T01:14:54.304Z,0.0000
2019-05-17T01:15:56.696Z,0.0000
2019-05-17T01:17:00.301Z,0.0000
2019-05-17T01:18:03.300Z,0.0000
2019-05-17T01:19:06.858Z,0.0000
2019-05-17T01:20:10.277Z,0.0000
2019-05-17T01:21:13.303Z,0.0000
2019-05-17T01:22:16.854Z,0.0000
2019-05-17T01:23:20.344Z,0.0000
2019-05-17T01:24:23.298Z,0.0000
2019-05-17T01:25:27.276Z,0.0000
2019-05-17T01:26:30.269Z,0.0000
2019-05-17T01:27:33.323Z,0.0000
2019-05-17T01:28:36.495Z,0.0000
2019-05-17T01:29:39.277Z,0.0000
2019-05-17T01:30:42.294Z,0.0000
2019-05-17T01:31:46.508Z,0.0000
2019-05-17T01:32:50.348Z,0.0000
2019-05-17T01:33:53.323Z,0.0000
2019-05-17T01:34:56.577Z,0.0000
2019-05-17T01:35:59.284Z,0.0000
2019-05-17T01:37:02.306Z,0.0000
2019-05-17T01:38:04.271Z,0.0000
2019-05-17T01:39:17.069Z,0.0000
2019-05-17T01:40:17.332Z,0.0000
2019-05-17T01:41:20.296Z,0.0000
2019-05-17T01:42:23.289Z,0.0000
2019-05-17T01:43:27.347Z,0.0000
2019-05-17T01:44:30.297Z,0.0000
2019-05-17T01:45:33.302Z,0.0000
2019-05-17T01:46:37.024Z,0.0000
2019-05-17T01:47:40.290Z,0.0000
2019-05-17T01:48:43.298Z,0.0000
2019-05-17T01:49:46.979Z,0.0000
2019-05-17T01:50:50.283Z,0.0000
2019-05-17T01:51:53.314Z,0.0000
2019-05-17T01:52:56.602Z,0.0000
2019-05-17T01:53:59.298Z,0.0000
2019-05-17T01:55:02.319Z,0.0000
2019-05-17T01:56:07.363Z,0.0000
2019-05-17T01:57:11.275Z,0.0000
2019-05-17T01:58:16.267Z,0.0000
2019-05-17T01:59:21.262Z,0.0000
2019-05-17T02:00:26.438Z,0.0000
2019-05-17T02:01:29.315Z,0.0000
2019-05-17T02:02:32.274Z,0.0000
2019-05-17T02:03:37.310Z,0.0000
2019-05-17T02:04:40.272Z,0.0000
2019-05-17T02:05:43.320Z,0.0000
2019-05-17T02:06:46.691Z,0.0000
2019-05-17T02:07:50.299Z,0.0000
2019-05-17T02:08:53.277Z,0.0000
2019-05-17T02:09:56.860Z,0.0000
2019-05-17T02:11:00.315Z,0.0000
2019-05-17T02:12:03.309Z,0.0000
2019-05-17T02:13:06.676Z,0.0000
2019-05-17T02:14:09.299Z,0.0000
2019-05-17T02:15:12.319Z,0.0000
2019-05-17T02:16:16.392Z,0.0000
2019-05-17T02:17:19.303Z,0.0000
2019-05-17T02:18:22.273Z,0.0000
2019-05-17T02:19:26.552Z,0.0000
2019-05-17T02:20:29.307Z,0.0000
2019-05-17T02:21:32.315Z,0.0000
2019-05-17T02:22:36.743Z,0.0000
2019-05-17T02:23:40.284Z,0.0000
2019-05-17T02:24:43.290Z,0.0000
2019-05-17T02:25:47.173Z,0.0000
2019-05-17T02:26:50.373Z,0.0000
2019-05-17T02:27:53.288Z,0.0000
2019-05-17T02:28:56.304Z,0.0000
2019-05-17T02:30:02.208Z,0.0000
2019-05-17T02:31:07.284Z,0.0000
2019-05-17T02:32:12.851Z,0.0000
2019-05-17T02:33:15.292Z,0.0000
2019-05-17T02:34:18.296Z,0.0000
2019-05-17T02:35:22.883Z,0.0000
2019-05-17T02:36:26.345Z,0.0000
2019-05-17T02:37:29.325Z,0.0000
2019-05-17T02:38:33.241Z,0.0000
2019-05-17T02:39:52.532Z,0.0000
2019-05-17T02:40:44.335Z,0.0000
2019-05-17T02:41:47.311Z,0.0000
2019-05-17T02:42:53.288Z,0.0000
2019-05-17T02:43:56.311Z,0.0000
2019-05-17T02:45:02.643Z,0.0000
2019-05-17T02:46:05.303Z,0.0000
2019-05-17T02:47:08.305Z,0.0000
2019-05-17T02:48:13.362Z,0.0000
2019-05-17T02:49:16.263Z,0.0000
2019-05-17T02:50:19.283Z,0.0000
2019-05-17T02:51:23.656Z,0.0000
2019-05-17T02:52:27.348Z,0.0000
2019-05-17T02:53:33.156Z,0.0000
2019-05-17T02:54:36.289Z,0.0000
2019-05-17T02:55:39.325Z,0.0000
2019-05-17T02:56:43.640Z,0.0000
2019-05-17T02:57:47.338Z,0.0000
2019-05-17T02:58:53.070Z,0.0000
2019-05-17T02:59:56.303Z,0.0000
2019-05-17T03:00:59.278Z,0.0000
2019-05-17T03:02:03.619Z,0.0000
2019-05-17T03:03:07.340Z,0.0000
2019-05-17T03:04:13.047Z,0.0000
2019-05-17T03:05:16.307Z,0.0000
2019-05-17T03:06:22.541Z,0.0000
2019-05-17T03:07:26.306Z,1.0000
2019-05-17T03:08:29.319Z,1.0000
2019-05-17T03:09:33.561Z,1.0000
2019-05-17T03:10:37.293Z,1.0000
2019-05-17T03:11:42.959Z,1.0000
2019-05-17T03:12:46.290Z,2.0000
2019-05-17T03:13:52.355Z,1.0000
2019-05-17T03:14:55.310Z,2.0000
2019-05-17T03:15:58.280Z,2.0000
2019-05-17T03:17:03.022Z,3.0000
2019-05-17T03:18:06.291Z,3.0000
2019-05-17T03:19:12.766Z,3.0000
2019-05-17T03:20:16.279Z,5.0000
2019-05-17T03:21:22.730Z,6.0000
2019-05-17T03:22:25.289Z,6.0000
2019-05-17T03:23:28.292Z,7.0000
2019-05-17T03:24:33.286Z,9.0000
2019-05-17T03:25:36.316Z,11.0000
2019-05-17T03:26:39.295Z,13.0000
2019-05-17T03:27:42.966Z,15.0000
2019-05-17T03:28:46.302Z,18.0000
2019-05-17T03:29:49.302Z,21.0000
2019-05-17T03:30:56.395Z,25.0000
2019-05-17T03:32:07.311Z,29.0000
2019-05-17T03:33:08.462Z,34.0000
2019-05-17T03:34:16.892Z,40.0000
2019-05-17T03:35:19.356Z,47.0000
2019-05-17T03:36:26.227Z,54.0000
2019-05-17T03:37:36.508Z,63.0000
2019-05-17T03:38:37.292Z,72.0000
2019-05-17T03:39:42.769Z,82.0000
2019-05-17T03:41:13.856Z,93.0000
2019-05-17T03:41:54.338Z,106.0000
2019-05-17T03:42:57.251Z,120.0000
2019-05-17T03:44:03.173Z,134.0000
2019-05-17T03:45:06.352Z,149.0000
2019-05-17T03:46:09.270Z,167.0000
2019-05-17T03:47:13.102Z,185.0000
2019-05-17T03:48:16.270Z,204.0000
2019-05-17T03:49:22.086Z,224.0000
2019-05-17T03:50:25.311Z,247.0000
2019-05-17T03:51:28.284Z,269.0000
2019-05-17T03:52:33.305Z,293.0000
2019-05-17T03:53:36.309Z,320.0000
2019-05-17T03:54:39.330Z,347.0000
2019-05-17T03:55:42.970Z,374.0000
2019-05-17T03:56:46.311Z,403.0000
2019-05-17T03:57:49.264Z,433.0000
2019-05-17T03:58:53.037Z,464.0000
2019-05-17T03:59:56.311Z,499.0000
2019-05-17T04:00:59.300Z,532.0000
2019-05-17T04:02:03.206Z,568.0000
2019-05-17T04:03:06.321Z,607.0000
2019-05-17T04:04:09.271Z,644.0000
2019-05-17T04:05:12.871Z,682.0000
2019-05-17T04:06:16.293Z,726.0000
2019-05-17T04:07:19.275Z,767.0000
2019-05-17T04:08:22.870Z,812.0000
2019-05-17T04:09:26.306Z,855.0000
2019-05-17T04:10:29.360Z,898.0000
2019-05-17T04:11:36.274Z,942.0000
2019-05-17T04:12:39.295Z,988.0000
2019-05-17T04:13:42.985Z,1028.0000
2019-05-17T04:14:46.266Z,1068.0000
2019-05-17T04:15:52.721Z,1111.0000
2019-05-17T04:16:56.292Z,1158.0000
2019-05-17T04:17:59.317Z,1208.0000
2019-05-17T04:19:03.153Z,1254.0000
2019-05-17T04:20:06.331Z,1299.0000
2019-05-17T04:21:12.312Z,1337.0000
2019-05-17T04:22:15.321Z,1377.0000
2019-05-17T04:23:18.273Z,1417.0000
2019-05-17T04:24:23.087Z,1459.0000
2019-05-17T04:25:25.354Z,1508.0000
2019-05-17T04:26:28.275Z,1556.0000
2019-05-17T04:27:32.693Z,1600.0000
2019-05-17T04:28:36.324Z,1648.0000
2019-05-17T04:29:42.411Z,1692.0000
2019-05-17T04:30:45.329Z,1738.0000
2019-05-17T04:31:48.311Z,1781.0000
2019-05-17T04:32:52.693Z,1824.0000
2019-05-17T04:33:56.318Z,1869.0000
2019-05-17T04:34:59.289Z,1913.0000
2019-05-17T04:36:02.814Z,1957.0000
2019-05-17T04:37:06.334Z,2007.0000
2019-05-17T04:38:09.263Z,2060.0000
2019-05-17T04:39:13.394Z,2113.0000
2019-05-17T04:40:16.292Z,2159.0000
2019-05-17T04:41:36.136Z,2204.0000
2019-05-17T04:42:27.307Z,2260.0000
2019-05-17T04:43:32.991Z,2324.0000
2019-05-17T04:44:36.279Z,2392.0000
2019-05-17T04:45:42.354Z,2437.0000
2019-05-17T04:46:45.292Z,2471.0000
2019-05-17T04:47:48.289Z,2500.0000
2019-05-17T04:48:53.629Z,2530.0000
2019-05-17T04:49:57.341Z,2571.0000
2019-05-17T04:51:02.486Z,2615.0000
2019-05-17T04:52:06.326Z,2685.0000
2019-05-17T04:53:09.265Z,2762.0000
2019-05-17T04:54:13.760Z,2840.0000
2019-05-17T04:55:17.337Z,2904.0000
2019-05-17T04:56:22.712Z,2941.0000
2019-05-17T04:57:26.300Z,2965.0000
2019-05-17T04:58:29.321Z,2980.0000
2019-05-17T04:59:33.912Z,3004.0000
2019-05-17T05:00:37.343Z,3049.0000
2019-05-17T05:01:43.428Z,3100.0000
2019-05-17T05:02:46.300Z,3138.0000
2019-05-17T05:03:52.289Z,3165.0000
2019-05-17T05:04:55.340Z,3251.0000
2019-05-17T05:05:58.331Z,3339.0000
2019-05-17T05:07:03.129Z,3425.0000
2019-05-17T05:08:06.295Z,3489.0000
2019-05-17T05:09:12.472Z,3451.0000
2019-05-17T05:10:16.288Z,3489.0000
2019-05-17T05:11:19.359Z,3519.0000
2019-05-17T05:12:22.879Z,3511.0000
2019-05-17T05:13:26.297Z,3442.0000
2019-05-17T05:14:29.306Z,3419.0000
2019-05-17T05:15:32.389Z,3658.0000
2019-05-17T05:16:35.375Z,3715.0000
2019-05-17T05:17:38.339Z,3769.0000
2019-05-17T05:18:42.136Z,3789.0000
2019-05-17T05:19:45.331Z,3780.0000
2019-05-17T05:20:48.315Z,3780.0000
2019-05-17T05:21:52.062Z,3786.0000
2019-05-17T05:22:55.354Z,3815.0000
2019-05-17T05:23:58.291Z,4255.0000
2019-05-17T05:25:02.125Z,4247.0000
2019-05-17T05:26:05.330Z,4518.0000
2019-05-17T05:27:08.373Z,4695.0000
2019-05-17T05:28:11.507Z,4871.0000
2019-05-17T05:29:14.297Z,5011.0000
2019-05-17T05:30:17.298Z,4995.0000
2019-05-17T05:31:22.625Z,4985.0000
2019-05-17T05:32:25.351Z,5044.0000
2019-05-17T05:33:28.316Z,5046.0000
2019-05-17T05:34:32.197Z,5167.0000
2019-05-17T05:35:35.341Z,5403.0000
2019-05-17T05:36:38.326Z,5507.0000
2019-05-17T05:37:42.313Z,5553.0000
2019-05-17T05:38:45.319Z,5467.0000
2019-05-17T05:39:48.282Z,5463.0000
2019-05-17T05:40:52.128Z,5302.0000
2019-05-17T05:42:06.348Z,5051.0000
2019-05-17T05:43:03.315Z,4860.0000
2019-05-17T05:44:06.317Z,4669.0000
2019-05-17T05:45:09.287Z,4552.0000
2019-05-17T05:46:12.262Z,4500.0000
2019-05-17T05:47:15.383Z,4256.0000
2019-05-17T05:48:18.333Z,3998.0000
2019-05-17T05:49:21.660Z,3824.0000
2019-05-17T05:50:25.321Z,3990.0000
2019-05-17T05:51:28.294Z,3972.0000
2019-05-17T05:52:32.334Z,4060.0000
2019-05-17T05:53:35.321Z,4028.0000
2019-05-17T05:54:37.320Z,4174.0000
2019-05-17T05:55:42.615Z,4535.0000
2019-05-17T05:56:45.334Z,4740.0000
2019-05-17T05:57:48.355Z,4688.0000
2019-05-17T05:58:52.305Z,4908.0000
2019-05-17T05:59:55.277Z,4825.0000
2019-05-17T06:00:58.299Z,4794.0000
2019-05-17T06:02:01.743Z,4721.0000
2019-05-17T06:03:05.417Z,4458.0000
2019-05-17T06:04:08.274Z,4741.0000
2019-05-17T06:05:14.722Z,4887.0000
2019-05-17T06:06:21.424Z,4924.0000
2019-05-17T06:07:24.367Z,5044.0000
2019-05-17T06:08:27.349Z,4976.0000
2019-05-17T06:09:31.826Z,5028.0000
2019-05-17T06:10:35.323Z,5239.0000
2019-05-17T06:11:38.258Z,5185.0000
2019-05-17T06:12:43.348Z,5541.0000
2019-05-17T06:13:47.304Z,6124.0000
2019-05-17T06:14:52.236Z,6381.0000
2019-05-17T06:15:55.318Z,6444.0000
2019-05-17T06:16:58.309Z,6655.0000
2019-05-17T06:18:02.969Z,6980.0000
2019-05-17T06:19:07.414Z,6879.0000
2019-05-17T06:20:11.714Z,6417.0000
2019-05-17T06:21:15.320Z,5994.0000
2019-05-17T06:22:18.312Z,5911.0000
2019-05-17T06:23:23.217Z,6021.0000
2019-05-17T06:24:27.372Z,6225.0000
2019-05-17T06:25:33.752Z,6378.0000
2019-05-17T06:26:37.324Z,6487.0000
2019-05-17T06:27:41.538Z,6620.0000
2019-05-17T06:28:45.309Z,6808.0000
2019-05-17T06:29:48.326Z,7141.0000
2019-05-17T06:30:52.172Z,7378.0000
2019-05-17T06:31:55.337Z,7373.0000
2019-05-17T06:32:58.303Z,7269.0000
2019-05-17T06:34:01.942Z,7618.0000
2019-05-17T06:35:05.382Z,7742.0000
2019-05-17T06:36:09.384Z,7136.0000
2019-05-17T06:37:13.311Z,7023.0000
2019-05-17T06:38:18.369Z,7307.0000
2019-05-17T06:39:22.390Z,8630.0000
2019-05-17T06:40:25.376Z,9248.0000
2019-05-17T06:41:28.322Z,9134.0000
2019-05-17T06:42:40.296Z,9008.0000
2019-05-17T06:43:41.495Z,8550.0000
2019-05-17T06:44:45.308Z,8298.0000
2019-05-17T06:45:48.362Z,8205.0000
2019-05-17T06:46:51.884Z,8407.0000
2019-05-17T06:47:55.299Z,8830.0000
2019-05-17T06:48:58.331Z,9470.0000
2019-05-17T06:50:03.148Z,10171.0000
2019-05-17T06:51:06.337Z,10546.0000
2019-05-17T06:52:11.514Z,10551.0000
2019-05-17T06:53:15.324Z,10894.0000
2019-05-17T06:54:18.308Z,11154.0000
2019-05-17T06:55:21.313Z,11544.0000
2019-05-17T06:56:24.334Z,12025.0000
2019-05-17T06:57:27.313Z,12444.0000
2019-05-17T06:58:31.543Z,11723.0000
2019-05-17T06:59:34.355Z,12473.0000
2019-05-17T07:00:37.307Z,13109.0000
2019-05-17T07:01:40.973Z,13564.0000
2019-05-17T07:02:44.279Z,12788.0000
2019-05-17T07:03:49.435Z,13573.0000
2019-05-17T07:04:55.373Z,14576.0000
2019-05-17T07:05:59.625Z,13583.0000
2019-05-17T07:07:03.352Z,12698.0000
2019-05-17T07:08:06.377Z,12751.0000
2019-05-17T07:09:10.045Z,13441.0000
2019-05-17T07:10:13.306Z,14771.0000
2019-05-17T07:11:16.346Z,15986.0000
2019-05-17T07:12:20.209Z,17840.0000
2019-05-17T07:13:23.340Z,18064.0000
2019-05-17T07:14:26.293Z,18224.0000
2019-05-17T07:15:43.372Z,16026.0000
2019-05-17T07:16:39.486Z,13694.0000
2019-05-17T07:17:42.306Z,12826.0000
2019-05-17T07:18:45.343Z,12940.0000
2019-05-17T07:19:50.595Z,12916.0000
2019-05-17T07:20:54.361Z,12880.0000
2019-05-17T07:21:59.663Z,12840.0000
2019-05-17T07:23:03.345Z,12802.0000
2019-05-17T07:24:06.315Z,12883.0000
2019-05-17T07:25:10.886Z,12951.0000
2019-05-17T07:26:14.336Z,13077.0000
2019-05-17T07:27:19.250Z,13471.0000
2019-05-17T07:28:22.372Z,13862.0000
2019-05-17T07:29:25.312Z,14730.0000
2019-05-17T07:30:30.417Z,15731.0000
2019-05-17T07:31:34.375Z,16049.0000
2019-05-17T07:32:37.351Z,16410.0000
2019-05-17T07:33:42.385Z,16977.0000
2019-05-17T07:34:45.387Z,17549.0000
2019-05-17T07:35:47.323Z,18448.0000
2019-05-17T07:36:50.452Z,18552.0000
2019-05-17T07:37:53.341Z,18432.0000
2019-05-17T07:38:56.359Z,18408.0000
2019-05-17T07:40:04.655Z,19112.0000
2019-05-17T07:41:07.340Z,19608.0000
2019-05-17T07:42:10.315Z,20544.0000
2019-05-17T07:43:14.897Z,21352.0000
2019-05-17T07:44:20.386Z,21544.0000
2019-05-17T07:45:23.311Z,21360.0000
2019-05-17T07:46:26.342Z,21080.0000
2019-05-17T07:47:29.489Z,21056.0000
2019-05-17T07:48:32.297Z,21160.0000
2019-05-17T07:49:35.391Z,20888.0000
2019-05-17T07:50:39.763Z,20720.0000
2019-05-17T07:51:44.331Z,20744.0000
2019-05-17T07:52:49.807Z,21160.0000
2019-05-17T07:53:53.427Z,21560.0000
2019-05-17T07:54:56.288Z,21888.0000
2019-05-17T07:55:59.765Z,22224.0000
2019-05-17T07:57:03.301Z,22184.0000
2019-05-17T07:58:06.345Z,22264.0000
2019-05-17T07:59:09.536Z,22296.0000
2019-05-17T08:00:14.369Z,21856.0000
2019-05-17T08:01:17.316Z,21184.0000
2019-05-17T08:02:20.347Z,20920.0000
2019-05-17T08:03:24.964Z,20656.0000
2019-05-17T08:04:29.939Z,20304.0000
2019-05-17T08:05:33.301Z,20088.0000
2019-05-17T08:06:36.334Z,20136.0000
2019-05-17T08:07:40.305Z,20168.0000
2019-05-17T08:08:44.361Z,20272.0000
2019-05-17T08:09:47.292Z,20264.0000
2019-05-17T08:10:50.942Z,20024.0000
2019-05-17T08:11:54.320Z,19800.0000
2019-05-17T08:12:59.772Z,19456.0000
2019-05-17T08:14:03.353Z,18736.0000
2019-05-17T08:15:06.313Z,17826.0000
2019-05-17T08:16:10.285Z,17586.0000
2019-05-17T08:17:14.322Z,16964.0000
2019-05-17T08:18:17.332Z,16653.0000
2019-05-17T08:19:20.534Z,16071.0000
2019-05-17T08:20:23.309Z,15264.0000
2019-05-17T08:21:26.330Z,14751.0000
2019-05-17T08:22:29.435Z,14318.0000
2019-05-17T08:23:32.312Z,14991.0000
2019-05-17T08:24:35.311Z,14563.0000
2019-05-17T08:25:52.097Z,14656.0000
2019-05-17T08:26:46.309Z,15015.0000
2019-05-17T08:27:50.305Z,15014.0000
2019-05-17T08:28:53.323Z,14585.0000
2019-05-17T08:29:56.357Z,14188.0000
2019-05-17T08:31:00.997Z,14316.0000
2019-05-17T08:32:04.366Z,15939.0000
2019-05-17T08:33:07.357Z,16553.0000
2019-05-17T08:34:10.517Z,17614.0000
2019-05-17T08:35:13.384Z,18388.0000
2019-05-17T08:36:16.330Z,18395.0000
2019-05-17T08:37:20.447Z,17484.0000
2019-05-17T08:38:24.357Z,17645.0000
2019-05-17T08:39:27.302Z,18037.0000
2019-05-17T08:40:30.652Z,18134.0000
2019-05-17T08:41:34.324Z,18848.0000
2019-05-17T08:42:37.316Z,19592.0000
2019-05-17T08:43:46.649Z,19712.0000
2019-05-17T08:44:49.785Z,20480.0000
2019-05-17T08:45:53.309Z,22072.0000
2019-05-17T08:46:56.358Z,23216.0000
2019-05-17T08:48:00.351Z,22456.0000
2019-05-17T08:49:03.366Z,22112.0000
2019-05-17T08:50:06.317Z,21720.0000
2019-05-17T08:51:10.814Z,21672.0000
2019-05-17T08:52:13.360Z,21528.0000
2019-05-17T08:53:16.295Z,24072.0000
2019-05-17T08:54:19.638Z,24928.0000
2019-05-17T08:55:22.303Z,27608.0000
2019-05-17T08:56:24.521Z,27392.0000
2019-05-17T08:57:30.073Z,28280.0000
2019-05-17T08:58:33.330Z,33704.0000
2019-05-17T08:59:36.376Z,31448.0000
2019-05-17T09:00:40.633Z,30064.0000
2019-05-17T09:01:44.358Z,31344.0000
2019-05-17T09:02:49.843Z,32024.0000
2019-05-17T09:03:53.317Z,30424.0000
2019-05-17T09:04:56.357Z,32344.0000
2019-05-17T09:06:02.326Z,32192.0000
2019-05-17T09:07:06.300Z,30168.0000
2019-05-17T09:08:10.460Z,33944.0000
2019-05-17T09:09:14.292Z,29696.0000
2019-05-17T09:10:17.353Z,32600.0000
2019-05-17T09:11:20.315Z,28728.0000
2019-05-17T09:12:23.314Z,34496.0000
2019-05-17T09:13:26.310Z,50432.0000
2019-05-17T09:14:29.475Z,49424.0000
2019-05-17T09:15:32.350Z,44176.0000
2019-05-17T09:16:35.307Z,42408.0000
2019-05-17T09:17:39.709Z,41784.0000
2019-05-17T09:18:43.330Z,48728.0000
2019-05-17T09:19:46.426Z,50768.0000
2019-05-17T09:20:49.593Z,46392.0000
2019-05-17T09:21:53.301Z,45200.0000
2019-05-17T09:22:56.303Z,37168.0000
2019-05-17T09:23:59.817Z,37528.0000
2019-05-17T09:25:03.317Z,40640.0000
2019-05-17T09:26:06.349Z,49064.0000
2019-05-17T09:27:10.162Z,37616.0000
2019-05-17T09:28:13.330Z,45488.0000
2019-05-17T09:29:16.300Z,52952.0000
2019-05-17T09:30:20.332Z,44816.0000
2019-05-17T09:31:23.394Z,51656.0000
2019-05-17T09:32:26.289Z,45720.0000
2019-05-17T09:33:30.033Z,54320.0000
2019-05-17T09:34:33.318Z,53912.0000
2019-05-17T09:35:36.319Z,42576.0000
2019-05-17T09:36:40.916Z,42648.0000
2019-05-17T09:37:44.359Z,42576.0000
2019-05-17T09:38:49.316Z,38544.0000
2019-05-17T09:39:52.275Z,41176.0000
2019-05-17T09:40:55.341Z,44688.0000
2019-05-17T09:41:59.585Z,39696.0000
2019-05-17T09:43:03.303Z,43288.0000
2019-05-17T09:44:12.830Z,46808.0000
2019-05-17T09:45:14.322Z,38632.0000
2019-05-17T09:46:19.484Z,38544.0000
2019-05-17T09:47:23.374Z,35168.0000
2019-05-17T09:48:26.323Z,35928.0000
2019-05-17T09:49:29.948Z,33880.0000
2019-05-17T09:50:33.334Z,35136.0000
2019-05-17T09:51:36.256Z,34944.0000
2019-05-17T09:52:40.704Z,37968.0000
2019-05-17T09:53:44.326Z,46888.0000
2019-05-17T09:54:47.299Z,47520.0000
2019-05-17T09:55:50.300Z,45392.0000
2019-05-17T09:56:53.292Z,48576.0000
2019-05-17T09:57:56.411Z,45168.0000
2019-05-17T09:59:00.368Z,43024.0000
2019-05-17T10:00:03.334Z,47136.0000
2019-05-17T10:01:06.300Z,41528.0000
2019-05-17T10:02:09.555Z,54928.0000
2019-05-17T10:03:12.381Z,51664.0000
2019-05-17T10:04:15.330Z,50048.0000
2019-05-17T10:05:20.147Z,59136.0000
2019-05-17T10:06:23.306Z,65535.0000
2019-05-17T10:07:26.353Z,65535.0000
2019-05-17T10:08:29.343Z,65535.0000
2019-05-17T10:09:32.326Z,65535.0000
2019-05-17T10:10:35.327Z,64784.0000
2019-05-17T10:11:39.913Z,62408.0000
2019-05-17T10:12:43.319Z,63528.0000
2019-05-17T10:13:46.294Z,54528.0000
2019-05-17T10:14:49.864Z,53352.0000
2019-05-17T10:15:53.328Z,59456.0000
2019-05-17T10:16:56.297Z,58376.0000
2019-05-17T10:18:00.583Z,60120.0000
2019-05-17T10:19:04.340Z,53368.0000
2019-05-17T10:20:07.314Z,63360.0000
2019-05-17T10:21:10.579Z,65272.0000
2019-05-17T10:22:14.298Z,65535.0000
2019-05-17T10:23:19.530Z,65535.0000
2019-05-17T10:24:34.932Z,65535.0000
2019-05-17T10:25:31.307Z,65535.0000
2019-05-17T10:26:34.347Z,65535.0000
2019-05-17T10:27:37.290Z,65535.0000
2019-05-17T10:28:40.294Z,65535.0000
2019-05-17T10:29:43.372Z,65535.0000
2019-05-17T10:30:46.313Z,65535.0000
2019-05-17T10:31:50.419Z,65535.0000
2019-05-17T10:32:53.318Z,65535.0000
2019-05-17T10:33:58.317Z,65535.0000
2019-05-17T10:35:03.302Z,65535.0000
2019-05-17T10:36:06.295Z,65535.0000
2019-05-17T10:37:10.487Z,65535.0000
2019-05-17T10:38:12.349Z,65535.0000
2019-05-17T10:39:15.311Z,65535.0000
2019-05-17T10:40:20.384Z,65535.0000
2019-05-17T10:41:24.300Z,65535.0000
2019-05-17T10:42:27.310Z,65535.0000
2019-05-17T10:43:30.345Z,65535.0000
2019-05-17T10:44:46.269Z,65535.0000
2019-05-17T10:45:41.302Z,65535.0000
2019-05-17T10:46:44.341Z,65535.0000
2019-05-17T10:47:47.370Z,65535.0000
2019-05-17T10:48:50.305Z,65535.0000
2019-05-17T10:49:52.326Z,65535.0000
2019-05-17T10:50:55.321Z,65535.0000
2019-05-17T10:51:59.948Z,65535.0000
2019-05-17T10:53:03.428Z,56152.0000
2019-05-17T10:54:06.344Z,65535.0000
2019-05-17T10:55:10.497Z,65535.0000
2019-05-17T10:56:14.287Z,65535.0000
2019-05-17T10:57:19.288Z,65535.0000
2019-05-17T10:58:22.373Z,65535.0000
2019-05-17T10:59:25.326Z,65535.0000
2019-05-17T11:00:30.380Z,65535.0000
2019-05-17T11:01:33.332Z,65535.0000
2019-05-17T11:02:36.296Z,65535.0000
2019-05-17T11:03:39.840Z,65535.0000
2019-05-17T11:04:43.314Z,65535.0000
2019-05-17T11:05:46.327Z,65535.0000
2019-05-17T11:06:50.115Z,65535.0000
2019-05-17T11:07:53.310Z,65535.0000
2019-05-17T11:08:56.326Z,65535.0000
2019-05-17T11:10:00.383Z,65535.0000
2019-05-17T11:11:03.331Z,65535.0000
2019-05-17T11:12:06.272Z,65535.0000
2019-05-17T11:13:09.315Z,65535.0000
2019-05-17T11:14:12.385Z,65535.0000
2019-05-17T11:15:15.333Z,65535.0000
2019-05-17T11:16:18.318Z,65535.0000
2019-05-17T11:17:21.312Z,65535.0000
2019-05-17T11:18:24.343Z,65535.0000
2019-05-17T11:19:27.329Z,65535.0000
2019-05-17T11:20:30.312Z,65535.0000
2019-05-17T11:21:33.301Z,65535.0000
2019-05-17T11:22:36.343Z,65535.0000
2019-05-17T11:23:39.299Z,65535.0000
2019-05-17T11:24:42.335Z,65535.0000
2019-05-17T11:25:46.387Z,65535.0000
2019-05-17T11:26:49.317Z,65535.0000
2019-05-17T11:27:52.306Z,65535.0000
2019-05-17T11:28:55.309Z,65535.0000
2019-05-17T11:29:58.358Z,65535.0000
2019-05-17T11:31:01.279Z,65535.0000
2019-05-17T11:32:04.329Z,65535.0000
2019-05-17T11:33:07.340Z,65535.0000
2019-05-17T11:34:10.408Z,64400.0000
2019-05-17T11:35:13.316Z,52600.0000
2019-05-17T11:36:16.298Z,53616.0000
2019-05-17T11:37:19.328Z,53392.0000
2019-05-17T11:38:22.298Z,55296.0000
2019-05-17T11:39:25.334Z,55592.0000
2019-05-17T11:40:28.357Z,52016.0000
2019-05-17T11:41:31.354Z,41352.0000
2019-05-17T11:42:34.284Z,55328.0000
2019-05-17T11:43:37.333Z,48744.0000
2019-05-17T11:44:40.343Z,56512.0000
2019-05-17T11:45:43.328Z,65232.0000
2019-05-17T11:46:46.331Z,65535.0000
2019-05-17T11:47:49.315Z,65535.0000
2019-05-17T11:48:52.317Z,65535.0000
2019-05-17T11:49:55.326Z,65535.0000
2019-05-17T11:50:58.356Z,65535.0000
2019-05-17T11:52:01.300Z,64816.0000
2019-05-17T11:53:04.320Z,56424.0000
2019-05-17T11:54:07.330Z,50104.0000
2019-05-17T11:55:10.320Z,45736.0000
2019-05-17T11:56:13.359Z,44288.0000
2019-05-17T11:57:16.320Z,42432.0000
2019-05-17T11:58:19.283Z,41584.0000
2019-05-17T11:59:22.297Z,41160.0000
2019-05-17T12:00:25.353Z,40056.0000
2019-05-17T12:01:28.326Z,37320.0000
2019-05-17T12:02:31.327Z,34176.0000
2019-05-17T12:03:33.316Z,32840.0000
2019-05-17T12:04:36.293Z,31456.0000
2019-05-17T12:05:39.339Z,29160.0000
2019-05-17T12:06:42.318Z,27272.0000
2019-05-17T12:07:44.326Z,26104.0000
2019-05-17T12:08:47.313Z,25504.0000
2019-05-17T12:09:50.369Z,25432.0000
2019-05-17T12:10:53.433Z,26272.0000
2019-05-17T12:11:56.361Z,27824.0000
2019-05-17T12:13:00.383Z,29848.0000
2019-05-17T12:14:03.300Z,32232.0000
2019-05-17T12:15:06.318Z,34512.0000
2019-05-17T12:16:09.311Z,35864.0000